createdAt,value
2016-10-17T00:00:05.694Z,1021.86
2016-10-17T00:01:05.716Z,1021.79
2016-10-17T00:02:05.737Z,1021.83
2016-10-17T00:03:05.756Z,1021.84
2016-10-17T00:04:05.778Z,1021.84
2016-10-17T00:05:05.797Z,1021.85
2016-10-17T00:06:05.820Z,1021.87
2016-10-17T00:07:05.841Z,1021.84
2016-10-17T00:08:05.863Z,1021.83
2016-10-17T00:10:05.900Z,1021.87
2016-10-17T00:11:05.923Z,1021.81
2016-10-17T00:12:05.941Z,1021.79
2016-10-17T00:13:05.962Z,1021.75
2016-10-17T00:14:05.985Z,1021.8
2016-10-17T00:15:06.003Z,1021.82
2016-10-17T00:16:06.026Z,1021.74
2016-10-17T00:17:06.044Z,1021.75
2016-10-17T00:18:06.067Z,1021.78
2016-10-17T00:19:06.087Z,1021.78
2016-10-17T00:20:06.107Z,1021.76
2016-10-17T00:21:06.127Z,1021.81
2016-10-17T00:22:06.148Z,1021.77
2016-10-17T00:23:06.171Z,1021.78
2016-10-17T00:25:06.213Z,1021.74
2016-10-17T00:26:06.232Z,1021.76
2016-10-17T00:27:06.251Z,1021.7
2016-10-17T00:28:06.273Z,1021.69
2016-10-17T00:29:06.295Z,1021.69
2016-10-17T00:30:06.315Z,1021.68
2016-10-17T00:31:06.334Z,1021.64
2016-10-17T00:32:06.355Z,1021.62
2016-10-17T00:33:06.375Z,1021.65
2016-10-17T00:34:06.396Z,1021.62
2016-10-17T00:35:06.419Z,1021.61
2016-10-17T00:36:06.440Z,1021.68
2016-10-17T00:37:06.460Z,1021.64
2016-10-17T00:38:06.482Z,1021.66
2016-10-17T00:39:06.500Z,1021.64
2016-10-17T00:40:06.523Z,1021.62
2016-10-17T00:41:06.541Z,1021.63
2016-10-17T00:42:06.563Z,1021.63
2016-10-17T00:43:06.583Z,1021.63
2016-10-17T00:44:06.606Z,1021.57
2016-10-17T00:45:06.626Z,1021.57
2016-10-17T00:46:06.648Z,1021.63
2016-10-17T00:47:06.667Z,1021.55
2016-10-17T00:48:06.689Z,1021.6
2016-10-17T00:49:06.708Z,1021.61
2016-10-17T00:50:06.731Z,1021.54
2016-10-17T00:51:06.763Z,1021.54
2016-10-17T00:52:06.771Z,1021.55
2016-10-17T00:53:06.791Z,1021.56
2016-10-17T00:54:06.812Z,1021.57
2016-10-17T00:55:06.832Z,1021.58
2016-10-17T00:57:06.876Z,1021.57
2016-10-17T00:58:06.897Z,1021.59
2016-10-17T00:59:06.915Z,1021.62
2016-10-17T01:00:06.936Z,1021.61
2016-10-17T01:01:06.959Z,1021.63
2016-10-17T01:02:06.980Z,1021.6
2016-10-17T01:03:07.000Z,1021.58
2016-10-17T01:04:07.021Z,1021.56
2016-10-17T01:05:07.042Z,1021.6
2016-10-17T01:06:07.062Z,1021.57
2016-10-17T01:07:07.082Z,1021.55
2016-10-17T01:08:07.103Z,1021.57
2016-10-17T01:09:07.124Z,1021.56
2016-10-17T01:10:07.144Z,1021.61
2016-10-17T01:11:07.167Z,1021.57
2016-10-17T01:13:07.210Z,1021.5
2016-10-17T01:14:07.228Z,1021.5
2016-10-17T01:15:07.251Z,1021.49
2016-10-17T01:16:07.270Z,1021.52
2016-10-17T01:17:07.290Z,1021.5
2016-10-17T01:18:07.313Z,1021.44
2016-10-17T01:19:07.334Z,1021.51
2016-10-17T01:20:07.354Z,1021.5
2016-10-17T01:21:07.375Z,1021.47
2016-10-17T01:22:07.395Z,1021.5
2016-10-17T01:23:07.415Z,1021.53
2016-10-17T01:24:07.438Z,1021.58
2016-10-17T01:25:07.456Z,1021.59
2016-10-17T01:26:07.479Z,1021.56
2016-10-17T01:27:07.498Z,1021.54
2016-10-17T01:29:07.541Z,1021.58
2016-10-17T01:30:07.562Z,1021.62
2016-10-17T01:31:07.581Z,1021.6
2016-10-17T01:32:07.601Z,1021.58
2016-10-17T01:33:07.622Z,1021.55
2016-10-17T01:34:07.643Z,1021.54
2016-10-17T01:35:07.667Z,1021.48
2016-10-17T01:36:07.935Z,1021.51
2016-10-17T01:37:07.705Z,1021.46
2016-10-17T01:38:07.726Z,1021.43
2016-10-17T01:39:07.747Z,1021.43
2016-10-17T01:40:07.769Z,1021.42
2016-10-17T01:41:07.789Z,1021.43
2016-10-17T01:42:07.810Z,1021.36
2016-10-17T01:43:07.831Z,1021.41
2016-10-17T01:45:07.870Z,1021.43
2016-10-17T01:46:07.893Z,1021.43
2016-10-17T01:47:07.911Z,1021.44
2016-10-17T01:48:07.932Z,1021.42
2016-10-17T01:49:07.955Z,1021.45
2016-10-17T01:50:07.973Z,1021.49
2016-10-17T01:51:07.995Z,1021.49
2016-10-17T01:52:08.016Z,1021.56
2016-10-17T01:53:08.035Z,1021.52
2016-10-17T01:54:08.057Z,1021.56
2016-10-17T01:55:08.078Z,1021.59
2016-10-17T01:56:08.097Z,1021.52
2016-10-17T01:57:08.118Z,1021.59
2016-10-17T01:58:08.141Z,1021.59
2016-10-17T02:00:08.183Z,1021.56
2016-10-17T02:01:08.203Z,1021.56
2016-10-17T02:02:08.222Z,1021.6
2016-10-17T02:03:08.244Z,1021.55
2016-10-17T02:04:08.266Z,1021.6
2016-10-17T02:05:08.284Z,1021.56
2016-10-17T02:06:08.307Z,1021.59
2016-10-17T02:07:08.328Z,1021.58
2016-10-17T02:08:08.347Z,1021.55
2016-10-17T02:09:08.367Z,1021.52
2016-10-17T02:10:08.388Z,1021.53
2016-10-17T02:11:08.411Z,1021.57
2016-10-17T02:12:08.431Z,1021.54
2016-10-17T02:13:08.452Z,1021.59
2016-10-17T02:14:08.473Z,1021.59
2016-10-17T02:15:08.494Z,1021.54
2016-10-17T02:16:08.514Z,1021.55
2016-10-17T02:17:08.533Z,1021.59
2016-10-17T02:18:08.556Z,1021.58
2016-10-17T02:19:08.573Z,1021.59
2016-10-17T02:20:08.595Z,1021.59
2016-10-17T02:21:08.618Z,1021.53
2016-10-17T02:22:08.636Z,1021.54
2016-10-17T02:23:08.656Z,1021.52
2016-10-17T02:24:08.677Z,1021.52
2016-10-17T02:25:08.698Z,1021.5
2016-10-17T02:26:08.722Z,1021.45
2016-10-17T02:27:08.739Z,1021.4
2016-10-17T02:28:08.760Z,1021.42
2016-10-17T02:29:08.784Z,1021.43
2016-10-17T02:30:08.803Z,1021.42
2016-10-17T02:32:08.846Z,1021.41
2016-10-17T02:33:08.866Z,1021.42
2016-10-17T02:34:08.884Z,1021.39
2016-10-17T02:35:08.907Z,1021.43
2016-10-17T02:36:08.941Z,1021.38
2016-10-17T02:37:08.947Z,1021.43
2016-10-17T02:38:08.970Z,1021.39
2016-10-17T02:39:08.990Z,1021.43
2016-10-17T02:40:09.011Z,1021.46
2016-10-17T02:41:09.030Z,1021.44
2016-10-17T02:42:09.051Z,1021.49
2016-10-17T02:43:09.074Z,1021.44
2016-10-17T02:44:09.093Z,1021.46
2016-10-17T02:45:09.112Z,1021.46
2016-10-17T02:46:09.135Z,1021.47
2016-10-17T02:48:09.176Z,1021.45
2016-10-17T02:49:09.198Z,1021.47
2016-10-17T02:50:09.217Z,1021.45
2016-10-17T02:51:09.238Z,1021.45
2016-10-17T02:52:09.260Z,1021.48
2016-10-17T02:53:09.281Z,1021.46
2016-10-17T02:54:09.300Z,1021.41
2016-10-17T02:55:09.322Z,1021.42
2016-10-17T02:56:09.343Z,1021.37
2016-10-17T02:57:09.363Z,1021.42
2016-10-17T02:58:09.385Z,1021.46
2016-10-17T02:59:09.406Z,1021.43
2016-10-17T03:00:09.424Z,1021.43
2016-10-17T03:01:09.444Z,1021.49
2016-10-17T03:02:09.466Z,1021.4
2016-10-17T03:04:09.509Z,1021.42
2016-10-17T03:05:09.530Z,1021.46
2016-10-17T03:06:09.549Z,1021.49
2016-10-17T03:07:09.570Z,1021.49
2016-10-17T03:08:09.592Z,1021.47
2016-10-17T03:09:09.613Z,1021.51
2016-10-17T03:10:09.631Z,1021.53
2016-10-17T03:11:09.652Z,1021.53
2016-10-17T03:12:09.675Z,1021.53
2016-10-17T03:13:09.696Z,1021.54
2016-10-17T03:14:09.716Z,1021.53
2016-10-17T03:15:09.734Z,1021.56
2016-10-17T03:16:09.758Z,1021.5
2016-10-17T03:17:09.780Z,1021.52
2016-10-17T03:18:09.799Z,1021.55
2016-10-17T03:20:09.840Z,1021.53
2016-10-17T03:21:09.861Z,1021.5
2016-10-17T03:22:09.879Z,1021.5
2016-10-17T03:23:09.900Z,1021.49
2016-10-17T03:24:09.923Z,1021.49
2016-10-17T03:25:09.941Z,1021.49
2016-10-17T03:26:09.962Z,1021.51
2016-10-17T03:27:09.983Z,1021.48
2016-10-17T03:28:10.004Z,1021.48
2016-10-17T03:29:10.026Z,1021.46
2016-10-17T03:30:10.047Z,1021.44
2016-10-17T03:31:10.066Z,1021.47
2016-10-17T03:32:10.086Z,1021.44
2016-10-17T03:33:10.109Z,1021.44
2016-10-17T03:35:10.152Z,1021.45
2016-10-17T03:36:10.169Z,1021.44
2016-10-17T03:37:10.190Z,1021.41
2016-10-17T03:38:10.211Z,1021.46
2016-10-17T03:39:10.232Z,1021.43
2016-10-17T03:40:10.254Z,1021.43
2016-10-17T03:41:10.275Z,1021.41
2016-10-17T03:42:10.295Z,1021.38
2016-10-17T03:43:10.313Z,1021.42
2016-10-17T03:44:10.336Z,1021.41
2016-10-17T03:45:10.355Z,1021.44
2016-10-17T03:46:10.376Z,1021.45
2016-10-17T03:47:10.396Z,1021.41
2016-10-17T03:48:10.419Z,1021.44
2016-10-17T03:49:10.441Z,1021.41
2016-10-17T03:50:10.460Z,1021.41
2016-10-17T03:51:10.480Z,1021.43
2016-10-17T03:52:10.499Z,1021.5
2016-10-17T03:53:10.522Z,1021.47
2016-10-17T03:54:10.540Z,1021.48
2016-10-17T03:55:10.561Z,1021.46
2016-10-17T03:56:10.581Z,1021.47
2016-10-17T03:57:10.604Z,1021.41
2016-10-17T03:58:10.624Z,1021.46
2016-10-17T03:59:10.645Z,1021.39
2016-10-17T04:00:10.663Z,1021.39
2016-10-17T04:01:10.684Z,1021.38
2016-10-17T04:02:10.704Z,1021.38
2016-10-17T04:03:10.724Z,1021.42
2016-10-17T04:04:10.748Z,1021.32
2016-10-17T04:05:10.767Z,1021.31
2016-10-17T04:07:10.809Z,1021.32
2016-10-17T04:08:10.827Z,1021.32
2016-10-17T04:09:10.847Z,1021.31
2016-10-17T04:10:10.870Z,1021.26
2016-10-17T04:11:10.891Z,1021.3
2016-10-17T04:12:10.909Z,1021.33
2016-10-17T04:13:10.929Z,1021.33
2016-10-17T04:14:10.951Z,1021.34
2016-10-17T04:15:10.971Z,1021.31
2016-10-17T04:16:10.990Z,1021.29
2016-10-17T04:17:11.011Z,1021.3
2016-10-17T04:18:11.034Z,1021.31
2016-10-17T04:19:11.053Z,1021.33
2016-10-17T04:20:11.074Z,1021.34
2016-10-17T04:21:11.094Z,1021.3
2016-10-17T04:23:11.134Z,1021.32
2016-10-17T04:24:11.153Z,1021.29
2016-10-17T04:25:11.175Z,1021.31
2016-10-17T04:26:11.196Z,1021.3
2016-10-17T04:27:11.215Z,1021.29
2016-10-17T04:28:11.237Z,1021.29
2016-10-17T04:29:11.256Z,1021.26
2016-10-17T04:30:11.278Z,1021.23
2016-10-17T04:31:11.297Z,1021.27
2016-10-17T04:32:11.316Z,1021.27
2016-10-17T04:33:11.339Z,1021.25
2016-10-17T04:34:11.358Z,1021.26
2016-10-17T04:35:11.379Z,1021.2
2016-10-17T04:36:11.400Z,1021.22
2016-10-17T04:37:11.418Z,1021.26
2016-10-17T04:39:11.458Z,1021.24
2016-10-17T04:40:11.481Z,1021.21
2016-10-17T04:41:11.501Z,1021.23
2016-10-17T04:42:11.521Z,1021.22
2016-10-17T04:43:11.791Z,1021.2
2016-10-17T04:44:11.562Z,1021.21
2016-10-17T04:45:11.582Z,1021.22
2016-10-17T04:46:11.602Z,1021.25
2016-10-17T04:47:11.622Z,1021.24
2016-10-17T04:48:11.643Z,1021.21
2016-10-17T04:49:11.662Z,1021.24
2016-10-17T04:50:11.683Z,1021.24
2016-10-17T04:51:11.703Z,1021.19
2016-10-17T04:52:11.724Z,1021.17
2016-10-17T04:53:11.743Z,1021.16
2016-10-17T04:55:11.784Z,1021.13
2016-10-17T04:56:11.804Z,1021.16
2016-10-17T04:57:11.824Z,1021.13
2016-10-17T04:58:11.844Z,1021.17
2016-10-17T04:59:11.865Z,1021.14
2016-10-17T05:00:11.884Z,1021.1
2016-10-17T05:01:11.904Z,1021.13
2016-10-17T05:02:11.925Z,1021.12
2016-10-17T05:03:11.943Z,1021.08
2016-10-17T05:04:11.965Z,1021.13
2016-10-17T05:05:11.985Z,1021.11
2016-10-17T05:06:12.003Z,1021.11
2016-10-17T05:07:12.024Z,1021.08
2016-10-17T05:08:12.044Z,1021.12
2016-10-17T05:10:12.087Z,1021.12
2016-10-17T05:11:12.107Z,1021.1
2016-10-17T05:12:12.127Z,1021.1
2016-10-17T05:13:12.146Z,1021.14
2016-10-17T05:14:12.168Z,1021.1
2016-10-17T05:15:12.185Z,1021.14
2016-10-17T05:16:12.207Z,1021.16
2016-10-17T05:17:12.228Z,1021.12
2016-10-17T05:18:12.247Z,1021.13
2016-10-17T05:19:12.268Z,1021.08
2016-10-17T05:20:12.288Z,1021.09
2016-10-17T05:21:12.309Z,1021.09
2016-10-17T05:22:12.326Z,1021.08
2016-10-17T05:23:12.348Z,1021.09
2016-10-17T05:24:12.366Z,1021.1
2016-10-17T05:25:12.389Z,1021.08
2016-10-17T05:26:12.406Z,1021.1
2016-10-17T05:27:12.427Z,1021.09
2016-10-17T05:28:12.449Z,1021.11
2016-10-17T05:29:12.467Z,1021.15
2016-10-17T05:30:12.487Z,1021.1
2016-10-17T05:31:12.509Z,1021.09
2016-10-17T05:32:12.527Z,1021.07
2016-10-17T05:33:12.547Z,1021.05
2016-10-17T05:34:12.568Z,1021.02
2016-10-17T05:35:12.588Z,1021.04
2016-10-17T05:36:12.608Z,1021.03
2016-10-17T05:37:12.629Z,1021.02
2016-10-17T05:38:12.648Z,1021.01
2016-10-17T05:39:12.670Z,1020.99
2016-10-17T05:40:12.689Z,1020.98
2016-10-17T05:42:12.728Z,1020.97
2016-10-17T05:43:12.750Z,1020.95
2016-10-17T05:44:12.767Z,1020.98
2016-10-17T05:45:12.789Z,1020.94
2016-10-17T05:46:12.807Z,1020.95
2016-10-17T05:47:12.829Z,1020.98
2016-10-17T05:48:12.846Z,1020.9
2016-10-17T05:49:12.867Z,1021
2016-10-17T05:50:12.889Z,1020.97
2016-10-17T05:51:12.906Z,1020.99
2016-10-17T05:52:12.926Z,1021.03
2016-10-17T05:53:12.946Z,1021.03
2016-10-17T05:54:12.966Z,1021.04
2016-10-17T05:55:12.985Z,1021.04
2016-10-17T05:56:13.006Z,1021.03
2016-10-17T05:58:13.045Z,1021.05
2016-10-17T05:59:13.067Z,1021.06
2016-10-17T06:00:13.084Z,1021.01
2016-10-17T06:01:13.105Z,1020.99
2016-10-17T06:02:13.126Z,1020.98
2016-10-17T06:03:13.146Z,1020.99
2016-10-17T06:04:13.166Z,1021.03
2016-10-17T06:05:13.187Z,1020.99
2016-10-17T06:06:13.204Z,1021
2016-10-17T06:07:13.224Z,1021.05
2016-10-17T06:08:13.244Z,1021.02
2016-10-17T06:09:13.264Z,1021.02
2016-10-17T06:10:13.286Z,1021.09
2016-10-17T06:11:13.304Z,1021.09
2016-10-17T06:12:13.324Z,1021.04
2016-10-17T06:14:13.363Z,1021.05
2016-10-17T06:15:13.386Z,1021.02
2016-10-17T06:16:13.404Z,1021.03
2016-10-17T06:17:13.423Z,1021.08
2016-10-17T06:18:13.443Z,1021.02
2016-10-17T06:19:13.465Z,1021.09
2016-10-17T06:20:13.486Z,1021.09
2016-10-17T06:21:13.505Z,1020.99
2016-10-17T06:22:13.523Z,1020.99
2016-10-17T06:23:13.545Z,1021.03
2016-10-17T06:24:13.563Z,1021.03
2016-10-17T06:25:13.582Z,1021.02
2016-10-17T06:26:13.602Z,1021.03
2016-10-17T06:27:13.622Z,1021.04
2016-10-17T06:28:13.641Z,1021.01
2016-10-17T06:30:13.682Z,1021.03
2016-10-17T06:31:13.704Z,1020.99
2016-10-17T06:32:13.723Z,1021.04
2016-10-17T06:33:13.743Z,1021.05
2016-10-17T06:34:13.763Z,1021.09
2016-10-17T06:35:13.782Z,1020.99
2016-10-17T06:36:13.802Z,1020.98
2016-10-17T06:37:13.820Z,1021.01
2016-10-17T06:38:13.840Z,1021.08
2016-10-17T06:39:13.859Z,1021.08
2016-10-17T06:40:13.880Z,1020.92
2016-10-17T06:41:13.902Z,1021.02
2016-10-17T06:42:13.922Z,1021.13
2016-10-17T06:43:13.940Z,1021.06
2016-10-17T06:45:13.980Z,1021.13
2016-10-17T06:46:13.999Z,1021.14
2016-10-17T06:47:14.022Z,1021.17
2016-10-17T06:48:14.042Z,1021.17
2016-10-17T06:49:14.061Z,1021.23
2016-10-17T06:50:14.079Z,1021.22
2016-10-17T06:51:14.101Z,1021.21
2016-10-17T06:52:14.122Z,1021.15
2016-10-17T06:53:14.139Z,1021.15
2016-10-17T06:54:14.161Z,1021.16
2016-10-17T06:55:14.181Z,1021.21
2016-10-17T06:56:14.501Z,1021.26
2016-10-17T06:57:14.220Z,1021.21
2016-10-17T06:58:14.240Z,1021.3
2016-10-17T06:59:14.261Z,1021.23
2016-10-17T07:00:14.279Z,1021.25
2016-10-17T07:01:14.300Z,1021.3
2016-10-17T07:02:14.318Z,1021.38
2016-10-17T07:03:14.340Z,1021.24
2016-10-17T07:04:14.357Z,1021.22
2016-10-17T07:05:14.380Z,1021.33
2016-10-17T07:06:14.400Z,1021.25
2016-10-17T07:07:14.418Z,1021.28
2016-10-17T07:08:14.437Z,1021.34
2016-10-17T07:09:14.457Z,1021.3
2016-10-17T07:10:14.479Z,1021.32
2016-10-17T07:11:14.500Z,1021.35
2016-10-17T07:12:14.519Z,1021.28
2016-10-17T07:13:14.539Z,1021.29
2016-10-17T07:14:14.560Z,1021.28
2016-10-17T07:15:14.579Z,1021.28
2016-10-17T07:17:14.620Z,1021.25
2016-10-17T07:18:14.639Z,1021.25
2016-10-17T07:19:14.907Z,1021.25
2016-10-17T07:20:14.677Z,1021.23
2016-10-17T07:21:14.699Z,1021.26
2016-10-17T07:22:14.718Z,1021.25
2016-10-17T07:23:14.739Z,1021.21
2016-10-17T07:24:14.757Z,1021.23
2016-10-17T07:25:14.779Z,1021.2
2016-10-17T07:26:14.796Z,1021.23
2016-10-17T07:27:14.819Z,1021.22
2016-10-17T07:28:14.839Z,1021.22
2016-10-17T07:29:14.857Z,1021.21
2016-10-17T07:30:14.876Z,1021.17
2016-10-17T07:31:14.896Z,1021.25
2016-10-17T07:33:14.939Z,1021.27
2016-10-17T07:34:14.958Z,1021.26
2016-10-17T07:35:14.977Z,1021.28
2016-10-17T07:36:14.999Z,1021.23
2016-10-17T07:37:15.016Z,1021.33
2016-10-17T07:38:15.038Z,1021.31
2016-10-17T07:39:15.058Z,1021.3
2016-10-17T07:40:15.079Z,1021.33
2016-10-17T07:41:15.098Z,1021.43
2016-10-17T07:42:15.116Z,1021.27
2016-10-17T07:43:15.138Z,1021.35
2016-10-17T07:44:15.156Z,1021.35
2016-10-17T07:45:15.178Z,1021.38
2016-10-17T07:46:15.198Z,1021.27
2016-10-17T07:47:15.619Z,1021.27
2016-10-17T07:49:15.255Z,1021.32
2016-10-17T07:50:15.278Z,1021.3
2016-10-17T07:51:15.298Z,1021.32
2016-10-17T07:52:15.317Z,1021.36
2016-10-17T07:53:15.338Z,1021.36
2016-10-17T07:54:15.356Z,1021.35
2016-10-17T07:55:15.378Z,1021.41
2016-10-17T07:56:15.395Z,1021.4
2016-10-17T07:57:15.415Z,1021.41
2016-10-17T07:58:15.438Z,1021.41
2016-10-17T07:59:15.455Z,1021.34
2016-10-17T08:00:15.476Z,1021.34
2016-10-17T08:01:15.496Z,1021.35
2016-10-17T08:02:15.516Z,1021.26
2016-10-17T08:03:15.536Z,1021.34
2016-10-17T08:05:15.576Z,1021.31
2016-10-17T08:06:15.599Z,1021.33
2016-10-17T08:07:15.616Z,1021.3
2016-10-17T08:08:15.638Z,1021.33
2016-10-17T08:09:15.659Z,1021.31
2016-10-17T08:10:15.678Z,1021.27
2016-10-17T08:11:15.696Z,1021.31
2016-10-17T08:12:15.717Z,1021.27
2016-10-17T08:13:15.739Z,1021.31
2016-10-17T08:14:15.759Z,1021.31
2016-10-17T08:15:15.776Z,1021.25
2016-10-17T08:16:15.797Z,1021.31
2016-10-17T08:17:15.818Z,1021.29
2016-10-17T08:18:15.840Z,1021.3
2016-10-17T08:20:15.880Z,1021.33
2016-10-17T08:21:15.898Z,1021.34
2016-10-17T08:22:15.919Z,1021.32
2016-10-17T08:23:15.939Z,1021.3
2016-10-17T08:24:15.960Z,1021.3
2016-10-17T08:25:15.980Z,1021.35
2016-10-17T08:26:16.001Z,1021.32
2016-10-17T08:27:16.022Z,1021.32
2016-10-17T08:28:16.041Z,1021.27
2016-10-17T08:29:16.062Z,1021.26
2016-10-17T08:30:16.082Z,1021.24
2016-10-17T08:31:16.103Z,1021.24
2016-10-17T08:32:16.122Z,1021.24
2016-10-17T08:33:16.143Z,1021.25
2016-10-17T08:34:16.163Z,1021.27
2016-10-17T08:35:16.181Z,1021.28
2016-10-17T08:36:16.201Z,1021.25
2016-10-17T08:37:16.221Z,1021.26
2016-10-17T08:38:16.244Z,1021.27
2016-10-17T08:39:16.261Z,1021.23
2016-10-17T08:40:16.282Z,1021.25
2016-10-17T08:41:16.302Z,1021.26
2016-10-17T08:42:16.323Z,1021.27
2016-10-17T08:43:16.342Z,1021.33
2016-10-17T08:44:16.363Z,1021.26
2016-10-17T08:45:16.385Z,1021.21
2016-10-17T08:46:16.406Z,1021.19
2016-10-17T08:47:16.425Z,1021.17
2016-10-17T08:48:16.443Z,1021.19
2016-10-17T08:49:16.464Z,1021.25
2016-10-17T08:50:16.483Z,1021.27
2016-10-17T08:52:16.526Z,1021.25
2016-10-17T08:53:16.545Z,1021.3
2016-10-17T08:54:16.564Z,1021.25
2016-10-17T08:55:16.585Z,1021.26
2016-10-17T08:56:16.605Z,1021.23
2016-10-17T08:57:16.626Z,1021.26
2016-10-17T08:58:16.646Z,1021.2
2016-10-17T08:59:16.667Z,1021.26
2016-10-17T09:00:16.689Z,1021.19
2016-10-17T09:01:16.707Z,1021.2
2016-10-17T09:02:16.728Z,1021.16
2016-10-17T09:03:16.750Z,1021.21
2016-10-17T09:04:16.771Z,1021.24
2016-10-17T09:05:16.788Z,1021.23
2016-10-17T09:06:16.810Z,1021.23
2016-10-17T09:08:16.850Z,1021.25
2016-10-17T09:09:16.870Z,1021.24
2016-10-17T09:10:16.893Z,1021.2
2016-10-17T09:11:16.914Z,1021.24
2016-10-17T09:12:16.933Z,1021.16
2016-10-17T09:13:16.952Z,1021.14
2016-10-17T09:14:16.973Z,1021.2
2016-10-17T09:15:16.994Z,1021.2
2016-10-17T09:16:17.015Z,1021.27
2016-10-17T09:17:17.034Z,1021.25
2016-10-17T09:18:17.055Z,1021.25
2016-10-17T09:19:17.078Z,1021.26
2016-10-17T09:20:17.096Z,1021.25
2016-10-17T09:21:17.119Z,1021.21
2016-10-17T09:22:17.139Z,1021.19
2016-10-17T09:24:17.180Z,1021.24
2016-10-17T09:25:17.200Z,1021.25
2016-10-17T09:26:17.220Z,1021.24
2016-10-17T09:27:17.242Z,1021.21
2016-10-17T09:28:17.263Z,1021.22
2016-10-17T09:29:17.284Z,1021.2
2016-10-17T09:30:17.303Z,1021.18
2016-10-17T09:31:17.323Z,1021.19
2016-10-17T09:32:17.343Z,1021.21
2016-10-17T09:33:17.367Z,1021.19
2016-10-17T09:34:17.384Z,1021.13
2016-10-17T09:35:17.407Z,1021.12
2016-10-17T09:36:17.428Z,1021.11
2016-10-17T09:37:17.450Z,1021.1
2016-10-17T09:38:17.467Z,1021.08
2016-10-17T09:40:17.509Z,1021.08
2016-10-17T09:41:17.531Z,1021.11
2016-10-17T09:42:17.549Z,1021.09
2016-10-17T09:43:17.573Z,1021.1
2016-10-17T09:44:17.591Z,1021.1
2016-10-17T09:45:17.614Z,1021.1
2016-10-17T09:46:17.633Z,1021.16
2016-10-17T09:47:17.654Z,1021.13
2016-10-17T09:48:17.677Z,1021.12
2016-10-17T09:49:17.694Z,1021.14
2016-10-17T09:50:17.718Z,1021.14
2016-10-17T09:51:17.738Z,1021.15
2016-10-17T09:52:17.759Z,1021.14
2016-10-17T09:53:17.779Z,1021.16
2016-10-17T09:55:17.820Z,1021.07
2016-10-17T09:56:17.842Z,1021.11
2016-10-17T09:57:17.863Z,1021.09
2016-10-17T09:58:17.882Z,1021.06
2016-10-17T09:59:17.905Z,1021.07
2016-10-17T10:00:17.925Z,1021.05
2016-10-17T10:01:17.945Z,1021.03
2016-10-17T10:02:17.966Z,1021.01
2016-10-17T10:03:17.986Z,1021.04
2016-10-17T10:04:18.007Z,1021.04
2016-10-17T10:05:18.031Z,1021.05
2016-10-17T10:06:18.049Z,1021.03
2016-10-17T10:07:18.069Z,1021.06
2016-10-17T10:08:18.088Z,1021.03
2016-10-17T10:09:18.110Z,1021.03
2016-10-17T10:10:18.132Z,1021.03
2016-10-17T10:11:18.149Z,1020.99
2016-10-17T10:12:18.173Z,1021.03
2016-10-17T10:13:18.193Z,1020.96
2016-10-17T10:14:18.213Z,1020.92
2016-10-17T10:15:18.234Z,1020.89
2016-10-17T10:16:18.255Z,1020.88
2016-10-17T10:17:18.276Z,1020.87
2016-10-17T10:18:18.296Z,1020.86
2016-10-17T10:19:18.315Z,1020.88
2016-10-17T10:20:18.336Z,1020.92
2016-10-17T10:21:18.360Z,1020.94
2016-10-17T10:22:18.377Z,1020.9
2016-10-17T10:23:18.400Z,1020.9
2016-10-17T10:24:18.419Z,1020.89
2016-10-17T10:25:18.439Z,1020.9
2016-10-17T10:27:18.482Z,1020.89
2016-10-17T10:28:18.503Z,1020.83
2016-10-17T10:29:18.523Z,1020.87
2016-10-17T10:30:18.545Z,1020.84
2016-10-17T10:31:18.567Z,1020.89
2016-10-17T10:32:18.586Z,1020.85
2016-10-17T10:33:18.608Z,1020.82
2016-10-17T10:34:18.630Z,1020.83
2016-10-17T10:35:18.651Z,1020.84
2016-10-17T10:36:18.670Z,1020.81
2016-10-17T10:37:18.689Z,1020.76
2016-10-17T10:38:18.711Z,1020.79
2016-10-17T10:39:18.732Z,1020.78
2016-10-17T10:40:18.754Z,1020.77
2016-10-17T10:41:18.775Z,1020.75
2016-10-17T10:43:18.815Z,1020.76
2016-10-17T10:44:18.835Z,1020.75
2016-10-17T10:45:18.857Z,1020.82
2016-10-17T10:46:18.880Z,1020.8
2016-10-17T10:47:18.899Z,1020.81
2016-10-17T10:48:18.920Z,1020.82
2016-10-17T10:49:18.942Z,1020.76
2016-10-17T10:50:18.963Z,1020.77
2016-10-17T10:51:18.981Z,1020.83
2016-10-17T10:52:19.003Z,1020.77
2016-10-17T10:53:19.024Z,1020.82
2016-10-17T10:54:19.045Z,1020.75
2016-10-17T10:55:19.067Z,1020.74
2016-10-17T10:56:19.088Z,1020.81
2016-10-17T10:57:19.111Z,1020.78
2016-10-17T10:59:19.150Z,1020.8
2016-10-17T11:00:19.170Z,1020.79
2016-10-17T11:01:19.191Z,1020.76
2016-10-17T11:02:19.213Z,1020.69
2016-10-17T11:03:19.232Z,1020.72
2016-10-17T11:04:19.256Z,1020.7
2016-10-17T11:05:19.277Z,1020.66
2016-10-17T11:06:19.297Z,1020.73
2016-10-17T11:07:19.316Z,1020.72
2016-10-17T11:08:19.337Z,1020.73
2016-10-17T11:09:19.359Z,1020.73
2016-10-17T11:10:19.381Z,1020.71
2016-10-17T11:11:19.400Z,1020.7
2016-10-17T11:12:19.423Z,1020.66
2016-10-17T11:13:19.441Z,1020.7
2016-10-17T11:15:19.486Z,1020.68
2016-10-17T11:16:19.505Z,1020.72
2016-10-17T11:17:19.525Z,1020.69
2016-10-17T11:18:19.548Z,1020.67
2016-10-17T11:19:19.571Z,1020.68
2016-10-17T11:20:19.588Z,1020.7
2016-10-17T11:21:19.612Z,1020.67
2016-10-17T11:22:19.633Z,1020.67
2016-10-17T11:23:19.654Z,1020.61
2016-10-17T11:24:19.674Z,1020.65
2016-10-17T11:25:19.695Z,1020.69
2016-10-17T11:26:19.717Z,1020.6
2016-10-17T11:27:19.737Z,1020.69
2016-10-17T11:28:19.759Z,1020.65
2016-10-17T11:30:19.800Z,1020.62
2016-10-17T11:31:19.822Z,1020.63
2016-10-17T11:32:19.842Z,1020.6
2016-10-17T11:33:19.865Z,1020.57
2016-10-17T11:34:19.885Z,1020.54
2016-10-17T11:35:19.905Z,1020.53
2016-10-17T11:36:19.926Z,1020.52
2016-10-17T11:37:19.947Z,1020.49
2016-10-17T11:38:19.968Z,1020.52
2016-10-17T11:39:19.992Z,1020.53
2016-10-17T11:40:20.011Z,1020.56
2016-10-17T11:41:20.035Z,1020.62
2016-10-17T11:42:20.055Z,1020.58
2016-10-17T11:43:20.077Z,1020.58
2016-10-17T11:44:20.096Z,1020.58
2016-10-17T11:45:20.118Z,1020.58
2016-10-17T11:46:20.138Z,1020.56
2016-10-17T11:47:20.161Z,1020.54
2016-10-17T11:48:20.184Z,1020.5
2016-10-17T11:49:20.202Z,1020.46
2016-10-17T11:50:20.223Z,1020.45
2016-10-17T11:51:20.247Z,1020.45
2016-10-17T11:52:20.266Z,1020.44
2016-10-17T11:53:20.289Z,1020.42
2016-10-17T11:54:20.310Z,1020.39
2016-10-17T11:55:20.329Z,1020.36
2016-10-17T11:56:20.351Z,1020.32
2016-10-17T11:57:20.374Z,1020.37
2016-10-17T11:58:20.395Z,1020.38
2016-10-17T11:59:20.416Z,1020.39
2016-10-17T12:00:20.435Z,1020.36
2016-10-17T12:02:20.478Z,1020.38
2016-10-17T12:03:20.501Z,1020.38
2016-10-17T12:04:20.519Z,1020.37
2016-10-17T12:05:20.543Z,1020.38
2016-10-17T12:06:20.563Z,1020.4
2016-10-17T12:07:20.584Z,1020.41
2016-10-17T12:08:20.604Z,1020.41
2016-10-17T12:09:20.625Z,1020.42
2016-10-17T12:10:20.649Z,1020.39
2016-10-17T12:11:20.669Z,1020.42
2016-10-17T12:12:20.691Z,1020.49
2016-10-17T12:13:20.710Z,1020.45
2016-10-17T12:14:20.734Z,1020.42
2016-10-17T12:15:20.752Z,1020.43
2016-10-17T12:16:20.773Z,1020.32
2016-10-17T12:18:20.816Z,1020.23
2016-10-17T12:19:20.840Z,1020.21
2016-10-17T12:20:20.860Z,1020.17
2016-10-17T12:21:20.879Z,1020.17
2016-10-17T12:22:20.902Z,1020.18
2016-10-17T12:23:20.923Z,1020.15
2016-10-17T12:24:20.946Z,1020.17
2016-10-17T12:25:20.966Z,1020.17
2016-10-17T12:26:20.985Z,1020.12
2016-10-17T12:27:21.006Z,1020.13
2016-10-17T12:28:21.027Z,1020.11
2016-10-17T12:29:21.049Z,1020.06
2016-10-17T12:30:21.071Z,1020.01
2016-10-17T12:31:21.091Z,1020.05
2016-10-17T12:32:21.112Z,1020.05
2016-10-17T12:34:21.156Z,1020.11
2016-10-17T12:35:21.177Z,1020.11
2016-10-17T12:36:21.196Z,1020.1
2016-10-17T12:37:21.217Z,1020.04
2016-10-17T12:38:21.238Z,1020.02
2016-10-17T12:39:21.287Z,1020.04
2016-10-17T12:40:21.283Z,1019.99
2016-10-17T12:41:21.303Z,1020.03
2016-10-17T12:42:21.322Z,1020.01
2016-10-17T12:43:21.346Z,1019.99
2016-10-17T12:44:21.364Z,1019.96
2016-10-17T12:45:21.386Z,1019.95
2016-10-17T12:46:21.407Z,1019.98
2016-10-17T12:47:21.428Z,1019.92
2016-10-17T12:48:21.449Z,1019.94